createdAt,value
2022-08-25T00:02:13.664Z,19.88
2022-08-25T00:04:53.776Z,19.83
2022-08-25T00:07:26.551Z,19.78
2022-08-25T00:09:59.107Z,19.74
2022-08-25T00:12:31.746Z,19.71
2022-08-25T00:15:05.493Z,19.70
2022-08-25T00:17:38.092Z,19.65
2022-08-25T00:20:10.878Z,19.63
2022-08-25T00:22:43.382Z,19.66
2022-08-25T00:25:16.249Z,19.61
2022-08-25T00:27:50.248Z,19.59
2022-08-25T00:30:22.998Z,19.55
2022-08-25T00:32:57.565Z,19.52
2022-08-25T00:35:30.261Z,19.49
2022-08-25T00:38:02.953Z,19.44
2022-08-25T00:40:37.585Z,19.40
2022-08-25T00:43:11.218Z,19.36
2022-08-25T00:45:43.708Z,19.30
2022-08-25T00:48:16.184Z,19.26
2022-08-25T00:50:48.732Z,19.22
2022-08-25T00:53:21.330Z,19.16
2022-08-25T00:55:54.088Z,19.11
2022-08-25T00:58:30.997Z,19.07
2022-08-25T01:01:04.716Z,19.04
2022-08-25T01:03:37.385Z,18.98
2022-08-25T01:06:11.529Z,18.94
2022-08-25T01:08:44.137Z,18.90
2022-08-25T01:11:16.667Z,18.87
2022-08-25T01:13:55.805Z,18.84
2022-08-25T01:16:28.333Z,18.82
2022-08-25T01:19:00.951Z,18.80
2022-08-25T01:21:42.912Z,18.77
2022-08-25T01:24:59.408Z,18.72
2022-08-25T01:27:31.972Z,18.70
2022-08-25T01:30:05.207Z,18.67
2022-08-25T01:32:37.708Z,18.65
2022-08-25T01:35:10.237Z,18.62
2022-08-25T01:37:42.778Z,18.61
2022-08-25T01:40:15.543Z,18.61
2022-08-25T01:43:07.097Z,18.60
2022-08-25T01:45:45.128Z,18.59
2022-08-25T01:48:19.427Z,18.57
2022-08-25T01:50:52.038Z,18.56
2022-08-25T01:53:33.419Z,18.55
2022-08-25T01:56:15.520Z,18.53
2022-08-25T01:58:49.946Z,18.50
2022-08-25T02:01:24.692Z,18.47
2022-08-25T02:03:58.268Z,18.42
2022-08-25T02:06:34.888Z,18.41
2022-08-25T02:09:13.824Z,18.37
2022-08-25T02:11:47.878Z,18.35
2022-08-25T02:14:20.541Z,18.32
2022-08-25T02:16:54.205Z,18.29
2022-08-25T02:19:26.877Z,18.27
2022-08-25T02:22:00.589Z,18.26
2022-08-25T02:24:33.222Z,18.23
2022-08-25T02:27:05.849Z,18.20
2022-08-25T02:29:38.364Z,18.19
2022-08-25T02:32:10.889Z,18.17
2022-08-25T02:34:43.502Z,18.16
2022-08-25T02:37:16.024Z,18.14
2022-08-25T02:39:48.680Z,18.11
2022-08-25T02:42:21.953Z,18.09
2022-08-25T02:44:54.520Z,18.09
2022-08-25T02:47:27.356Z,18.05
2022-08-25T02:49:59.856Z,18.04
2022-08-25T02:52:32.706Z,18.02
2022-08-25T02:55:09.534Z,18.00
2022-08-25T02:57:42.475Z,17.98
2022-08-25T03:00:17.143Z,17.94
2022-08-25T03:02:49.918Z,17.93
2022-08-25T03:05:22.502Z,17.90
2022-08-25T03:07:56.171Z,17.90
2022-08-25T03:10:30.440Z,17.87
2022-08-25T03:13:03.476Z,17.85
2022-08-25T03:15:37.775Z,17.86
2022-08-25T03:18:11.739Z,17.85
2022-08-25T03:20:46.752Z,17.82
2022-08-25T03:23:19.544Z,17.82
2022-08-25T03:26:14.068Z,17.81
2022-08-25T03:28:46.747Z,17.81
2022-08-25T03:31:19.324Z,17.79
2022-08-25T03:33:52.024Z,17.77
2022-08-25T03:36:25.877Z,17.78
2022-08-25T03:38:58.537Z,17.78
2022-08-25T03:41:33.921Z,17.79
2022-08-25T03:44:09.141Z,17.80
2022-08-25T03:46:47.046Z,17.81
2022-08-25T03:49:23.587Z,17.80
2022-08-25T03:51:56.081Z,17.80
2022-08-25T03:54:28.769Z,17.79
2022-08-25T03:57:01.317Z,17.80
2022-08-25T03:59:34.727Z,17.78
2022-08-25T04:02:08.260Z,17.77
2022-08-25T04:04:40.941Z,17.77
2022-08-25T04:07:13.514Z,17.75
2022-08-25T04:09:46.155Z,17.76
2022-08-25T04:12:18.907Z,17.80
2022-08-25T04:14:51.696Z,17.80
2022-08-25T04:17:24.445Z,17.86
2022-08-25T04:19:57.333Z,17.86
2022-08-25T04:22:30.984Z,17.87
2022-08-25T04:25:07.258Z,17.87
2022-08-25T04:27:40.916Z,17.87
2022-08-25T04:30:14.581Z,17.88
2022-08-25T04:32:48.519Z,17.92
2022-08-25T04:35:22.514Z,17.94
2022-08-25T04:37:55.017Z,17.98
2022-08-25T04:40:29.209Z,18.01
2022-08-25T04:43:01.947Z,18.01
2022-08-25T04:45:40.593Z,18.00
2022-08-25T04:48:13.122Z,17.98
2022-08-25T04:50:45.689Z,17.96
2022-08-25T04:53:18.784Z,17.99
2022-08-25T04:55:51.392Z,18.03
2022-08-25T04:58:23.927Z,18.04
2022-08-25T05:01:06.316Z,18.06
2022-08-25T05:03:39.202Z,18.16
2022-08-25T05:06:15.363Z,18.20
2022-08-25T05:08:49.530Z,18.25
2022-08-25T05:11:23.624Z,18.28
2022-08-25T05:13:57.956Z,18.35
2022-08-25T05:16:31.297Z,18.40
2022-08-25T05:19:04.731Z,18.45
2022-08-25T05:21:37.787Z,18.51
2022-08-25T05:24:10.298Z,18.57
2022-08-25T05:26:42.890Z,18.70
2022-08-25T05:29:15.724Z,18.83
2022-08-25T05:31:50.576Z,18.98
2022-08-25T05:34:24.761Z,19.14
2022-08-25T05:36:59.974Z,19.30
2022-08-25T05:39:33.762Z,19.46
2022-08-25T05:42:06.582Z,19.60
2022-08-25T05:44:39.094Z,19.71
2022-08-25T05:47:11.587Z,19.80
2022-08-25T05:49:44.394Z,19.86
2022-08-25T05:52:18.266Z,19.92
2022-08-25T05:54:52.858Z,19.95
2022-08-25T05:57:25.393Z,19.96
2022-08-25T05:59:58.031Z,19.99
2022-08-25T06:02:48.353Z,20.00
2022-08-25T06:05:23.149Z,20.06
2022-08-25T06:07:56.813Z,20.11
2022-08-25T06:10:29.520Z,20.21
2022-08-25T06:13:02.108Z,20.28
2022-08-25T06:15:35.247Z,20.41
2022-08-25T06:18:07.790Z,20.47
2022-08-25T06:20:40.408Z,20.55
2022-08-25T06:23:13.229Z,20.63
2022-08-25T06:25:54.037Z,20.70
2022-08-25T06:28:26.516Z,20.76
2022-08-25T06:31:01.648Z,20.82
2022-08-25T06:33:34.173Z,20.87
2022-08-25T06:36:07.570Z,20.92
2022-08-25T06:38:40.103Z,20.99
2022-08-25T06:41:12.940Z,21.05
2022-08-25T06:43:49.868Z,21.12
2022-08-25T06:46:35.813Z,21.20
2022-08-25T06:49:08.629Z,21.27
2022-08-25T06:51:42.273Z,21.36
2022-08-25T06:54:14.837Z,21.46
2022-08-25T06:56:47.519Z,21.56
2022-08-25T06:59:22.416Z,21.65
2022-08-25T07:01:54.990Z,21.77
2022-08-25T07:04:27.701Z,21.89
2022-08-25T07:07:01.457Z,21.96
2022-08-25T07:09:38.580Z,22.04
2022-08-25T07:12:11.686Z,22.13
2022-08-25T07:14:58.107Z,22.17
2022-08-25T07:17:36.482Z,22.24
2022-08-25T07:20:09.429Z,22.27
2022-08-25T07:22:48.185Z,22.34
2022-08-25T07:25:20.673Z,22.45
2022-08-25T07:27:58.587Z,22.54
2022-08-25T07:30:32.265Z,22.66
2022-08-25T07:33:06.865Z,22.79
2022-08-25T07:35:39.956Z,22.92
2022-08-25T07:38:20.707Z,23.02
2022-08-25T07:41:02.650Z,23.16
2022-08-25T07:43:35.140Z,23.26
2022-08-25T07:46:08.516Z,23.41
2022-08-25T07:48:41.881Z,23.52
2022-08-25T07:51:17.699Z,23.63
2022-08-25T07:53:50.212Z,23.78
2022-08-25T07:56:23.020Z,23.88
2022-08-25T07:58:55.952Z,23.99
2022-08-25T08:01:28.510Z,24.12
2022-08-25T08:04:03.648Z,24.25
2022-08-25T08:06:37.021Z,24.38
2022-08-25T08:09:09.516Z,24.49
2022-08-25T08:11:53.942Z,24.61
2022-08-25T08:14:27.154Z,24.72
2022-08-25T08:16:59.902Z,24.84
2022-08-25T08:19:32.487Z,24.92
2022-08-25T08:22:05.988Z,25.03
2022-08-25T08:24:44.858Z,25.11
2022-08-25T08:27:27.613Z,25.28
2022-08-25T08:30:00.279Z,25.39
2022-08-25T08:33:05.890Z,25.51
2022-08-25T08:35:26.068Z,25.63
2022-08-25T08:37:58.542Z,25.71
2022-08-25T08:40:34.529Z,25.82
2022-08-25T08:43:18.922Z,25.93
2022-08-25T08:45:53.761Z,26.06
2022-08-25T08:48:51.311Z,26.20
2022-08-25T08:51:33.501Z,26.30
2022-08-25T08:54:18.523Z,26.44
2022-08-25T08:57:06.218Z,26.56
2022-08-25T08:59:59.778Z,26.67
2022-08-25T09:03:14.707Z,26.72
2022-08-25T09:05:56.154Z,26.86
2022-08-25T09:08:28.725Z,27.00
2022-08-25T09:11:10.133Z,27.13
2022-08-25T09:14:30.835Z,27.31
2022-08-25T09:17:54.673Z,27.50
2022-08-25T09:20:59.817Z,27.67
2022-08-25T09:24:00.906Z,27.83
2022-08-25T09:26:56.272Z,27.95
2022-08-25T09:29:53.545Z,28.15
2022-08-25T09:32:32.269Z,28.29
2022-08-25T09:35:09.992Z,28.43
2022-08-25T09:37:42.508Z,28.52
2022-08-25T09:40:15.764Z,28.68
2022-08-25T09:42:57.920Z,28.79
2022-08-25T09:45:45.974Z,28.97
2022-08-25T09:48:48.413Z,29.03
2022-08-25T09:51:38.080Z,29.12
2022-08-25T09:54:20.777Z,29.22
2022-08-25T09:57:01.781Z,29.37
2022-08-25T09:59:37.535Z,29.50
2022-08-25T10:02:29.413Z,29.66
2022-08-25T10:05:26.479Z,29.80
2022-08-25T10:08:03.325Z,30.00
2022-08-25T10:10:46.007Z,30.13
2022-08-25T10:13:41.605Z,30.25
2022-08-25T10:16:36.185Z,30.35
2022-08-25T10:19:21.289Z,30.52
2022-08-25T10:22:32.937Z,30.73
2022-08-25T10:25:10.080Z,30.86
2022-08-25T10:28:11.015Z,31.02
2022-08-25T10:30:56.205Z,31.05
2022-08-25T10:33:28.769Z,31.03
2022-08-25T10:36:20.472Z,30.93
2022-08-25T10:39:04.440Z,30.84
2022-08-25T10:42:17.015Z,30.93
2022-08-25T10:45:35.025Z,30.86
2022-08-25T10:48:25.908Z,30.87
2022-08-25T10:51:13.595Z,30.84
2022-08-25T10:54:31.673Z,30.87
2022-08-25T10:57:23.767Z,30.92
2022-08-25T11:00:11.554Z,30.98
2022-08-25T11:03:11.744Z,31.11
2022-08-25T11:06:20.322Z,31.26
2022-08-25T11:09:08.313Z,31.40
2022-08-25T11:11:53.487Z,31.51
2022-08-25T11:14:36.758Z,31.63
2022-08-25T11:17:23.064Z,31.76
2022-08-25T11:20:06.099Z,31.87
2022-08-25T11:22:48.632Z,31.97
2022-08-25T11:25:32.408Z,32.06
2022-08-25T11:28:26.173Z,32.05
2022-08-25T11:31:02.175Z,32.03
2022-08-25T11:33:35.336Z,31.87
2022-08-25T11:36:33.865Z,31.94
2022-08-25T11:39:16.721Z,31.94
2022-08-25T11:42:16.430Z,31.95
2022-08-25T11:45:26.051Z,31.92
2022-08-25T11:48:38.871Z,31.90
2022-08-25T11:51:30.857Z,31.89
2022-08-25T11:54:36.985Z,32.13
2022-08-25T11:57:22.923Z,32.28
2022-08-25T12:00:13.626Z,32.35
2022-08-25T12:02:51.151Z,32.35
2022-08-25T12:05:24.137Z,32.46
2022-08-25T12:08:22.597Z,32.37
2022-08-25T12:11:11.059Z,32.39
2022-08-25T12:13:47.480Z,32.35
2022-08-25T12:16:35.129Z,32.37
2022-08-25T12:19:35.413Z,32.39
2022-08-25T12:22:07.812Z,32.28
2022-08-25T12:24:47.629Z,32.35
2022-08-25T12:28:09.324Z,32.30
2022-08-25T12:30:56.784Z,32.16
2022-08-25T12:33:53.727Z,32.16
2022-08-25T12:36:34.416Z,32.16
2022-08-25T12:39:28.882Z,32.32
2022-08-25T12:42:21.989Z,32.43
2022-08-25T12:45:16.405Z,32.41
2022-08-25T12:47:52.792Z,32.23
2022-08-25T12:50:41.590Z,32.20
2022-08-25T12:53:34.809Z,32.31
2022-08-25T12:56:20.806Z,32.36
2022-08-25T12:59:14.551Z,32.36
2022-08-25T13:02:20.828Z,32.45
2022-08-25T13:05:28.582Z,32.47
2022-08-25T13:08:46.981Z,32.72
2022-08-25T13:12:00.550Z,32.86
2022-08-25T13:14:42.289Z,32.93
2022-08-25T13:17:34.206Z,32.73
2022-08-25T13:20:30.519Z,32.42
2022-08-25T13:25:58.334Z,32.25
2022-08-25T13:28:37.097Z,32.36
2022-08-25T13:31:22.443Z,32.42
2022-08-25T13:34:05.920Z,32.48
2022-08-25T13:37:07.426Z,32.59
2022-08-25T13:39:55.421Z,32.78
2022-08-25T13:42:29.438Z,32.89
2022-08-25T13:45:05.622Z,32.94
2022-08-25T13:47:43.640Z,32.92
2022-08-25T13:50:28.357Z,33.02
2022-08-25T13:53:25.323Z,33.17
2022-08-25T13:56:01.687Z,33.29
2022-08-25T13:58:44.915Z,33.39
2022-08-25T14:01:47.775Z,33.40
2022-08-25T14:04:51.322Z,33.68
2022-08-25T14:07:34.052Z,33.83
2022-08-25T14:10:10.363Z,33.89
2022-08-25T14:12:46.991Z,33.98
2022-08-25T14:15:22.083Z,34.10
2022-08-25T14:18:21.614Z,34.10
2022-08-25T14:21:02.015Z,34.06
2022-08-25T14:23:36.367Z,33.83
2022-08-25T14:26:08.821Z,33.96
2022-08-25T14:28:41.443Z,34.09
2022-08-25T14:31:36.109Z,34.25
2022-08-25T14:34:20.828Z,34.44
2022-08-25T14:36:54.375Z,34.45
2022-08-25T14:39:27.956Z,34.41
2022-08-25T14:42:00.427Z,34.44
2022-08-25T14:44:33.278Z,34.38
2022-08-25T14:47:07.610Z,34.04
2022-08-25T14:49:42.540Z,33.57
2022-08-25T14:52:28.752Z,33.76
2022-08-25T14:55:01.337Z,33.52
2022-08-25T14:57:33.909Z,33.59
2022-08-25T15:00:09.026Z,33.37
2022-08-25T15:02:43.822Z,33.18
2022-08-25T15:05:26.945Z,33.04
2022-08-25T15:08:19.752Z,33.04
2022-08-25T15:10:53.500Z,32.83
2022-08-25T15:13:27.420Z,32.56
2022-08-25T15:16:00.999Z,32.51
2022-08-25T15:18:36.001Z,32.55
2022-08-25T15:21:08.749Z,32.68
2022-08-25T15:23:41.136Z,32.55
2022-08-25T15:26:18.487Z,32.56
2022-08-25T15:28:51.316Z,32.33
2022-08-25T15:31:24.359Z,32.16
2022-08-25T15:33:56.890Z,32.10
2022-08-25T15:36:29.333Z,32.03
2022-08-25T15:39:03.525Z,32.10
2022-08-25T15:41:37.456Z,32.09
2022-08-25T15:44:12.475Z,32.30
2022-08-25T15:46:47.132Z,32.68
2022-08-25T15:49:23.521Z,33.06
2022-08-25T15:51:56.979Z,33.32
2022-08-25T15:54:30.617Z,33.72
2022-08-25T15:57:03.320Z,33.85
2022-08-25T15:59:41.770Z,34.22
2022-08-25T16:02:15.103Z,34.15
2022-08-25T16:04:47.957Z,33.58
2022-08-25T16:07:20.497Z,34.25
2022-08-25T16:09:56.807Z,34.45
2022-08-25T16:12:29.312Z,34.16
2022-08-25T16:15:01.923Z,34.39
2022-08-25T16:17:34.319Z,34.35
2022-08-25T16:20:12.682Z,34.48
2022-08-25T16:22:47.541Z,34.49
2022-08-25T16:25:21.023Z,34.72
2022-08-25T16:27:53.918Z,34.87
2022-08-25T16:30:26.457Z,34.85
2022-08-25T16:33:00.121Z,35.00
2022-08-25T16:35:33.948Z,35.23
2022-08-25T16:38:09.664Z,35.39
2022-08-25T16:40:45.827Z,34.80
2022-08-25T16:43:18.510Z,34.98
2022-08-25T16:46:02.639Z,34.64
2022-08-25T16:48:36.314Z,34.32
2022-08-25T16:51:13.785Z,33.90
2022-08-25T16:54:22.222Z,33.95
2022-08-25T16:56:57.271Z,33.86
2022-08-25T16:59:29.804Z,33.74
2022-08-25T17:02:02.482Z,33.91
2022-08-25T17:04:34.877Z,33.81
2022-08-25T17:07:07.811Z,33.68
2022-08-25T17:09:40.335Z,33.50
2022-08-25T17:12:12.732Z,33.38
2022-08-25T17:14:45.154Z,33.31
2022-08-25T17:17:18.191Z,33.17
2022-08-25T17:19:53.400Z,33.07
2022-08-25T17:22:27.392Z,32.87
2022-08-25T17:25:01.202Z,32.69
2022-08-25T17:27:33.840Z,32.52
2022-08-25T17:30:06.899Z,32.51
2022-08-25T17:32:39.323Z,32.49
2022-08-25T17:35:13.383Z,32.52
2022-08-25T17:37:50.393Z,32.51
2022-08-25T17:40:23.279Z,32.44
2022-08-25T17:42:58.928Z,32.41
2022-08-25T17:45:31.579Z,32.29
2022-08-25T17:48:04.126Z,32.09
2022-08-25T17:50:38.990Z,31.87
2022-08-25T17:53:12.967Z,31.51
2022-08-25T17:55:46.580Z,31.11
2022-08-25T17:58:18.985Z,30.80
2022-08-25T18:00:52.734Z,30.50
2022-08-25T18:03:27.202Z,30.26
2022-08-25T18:06:00.383Z,29.95
2022-08-25T18:08:35.061Z,29.75
2022-08-25T18:11:08.650Z,29.51
2022-08-25T18:13:42.661Z,29.24
2022-08-25T18:16:15.832Z,28.44
2022-08-25T18:18:48.781Z,27.94
2022-08-25T18:21:22.515Z,27.57
2022-08-25T18:23:55.859Z,27.34
2022-08-25T18:26:28.340Z,27.20
2022-08-25T18:29:01.661Z,26.86
2022-08-25T18:31:34.155Z,26.73
2022-08-25T18:34:10.993Z,26.54
2022-08-25T18:36:43.413Z,26.45
2022-08-25T18:39:36.468Z,26.36
2022-08-25T18:42:08.942Z,26.15
2022-08-25T18:44:46.479Z,26.05
2022-08-25T18:47:19.219Z,25.89
2022-08-25T18:49:54.736Z,25.81
2022-08-25T18:52:28.389Z,25.69
2022-08-25T18:55:02.928Z,25.53
2022-08-25T18:57:37.804Z,25.46
2022-08-25T19:00:15.807Z,25.34
2022-08-25T19:02:50.503Z,25.21
2022-08-25T19:05:26.535Z,25.04
2022-08-25T19:08:01.895Z,24.89
2022-08-25T19:10:36.876Z,24.74
2022-08-25T19:13:10.887Z,24.64
2022-08-25T19:15:44.561Z,24.54
2022-08-25T19:18:17.219Z,24.48
2022-08-25T19:20:50.053Z,24.36
2022-08-25T19:23:24.884Z,24.28
2022-08-25T19:25:58.129Z,24.19
2022-08-25T19:28:30.625Z,24.13
2022-08-25T19:31:06.249Z,24.05
2022-08-25T19:33:44.608Z,23.96
2022-08-25T19:36:21.367Z,23.79
2022-08-25T19:38:58.729Z,23.62
2022-08-25T19:41:31.402Z,23.49
2022-08-25T19:44:03.980Z,23.31
2022-08-25T19:46:37.908Z,23.24
2022-08-25T19:49:18.900Z,22.89
2022-08-25T19:51:54.602Z,22.71
2022-08-25T19:54:33.845Z,22.56
2022-08-25T19:57:10.636Z,22.50
2022-08-25T19:59:47.134Z,22.38
2022-08-25T20:02:24.922Z,22.35
2022-08-25T20:05:01.460Z,22.26
2022-08-25T20:07:35.487Z,22.19
2022-08-25T20:10:14.009Z,22.13
2022-08-25T20:12:47.534Z,22.04
2022-08-25T20:15:20.223Z,22.00
2022-08-25T20:17:56.593Z,21.88
2022-08-25T20:20:32.349Z,21.76
2022-08-25T20:23:25.418Z,21.71
2022-08-25T20:26:00.306Z,21.56
2022-08-25T20:28:32.721Z,21.53
2022-08-25T20:31:05.615Z,21.47
2022-08-25T20:33:39.799Z,21.38
2022-08-25T20:36:15.139Z,21.29
2022-08-25T20:38:47.576Z,21.24
2022-08-25T20:41:20.757Z,21.17
2022-08-25T20:43:53.288Z,21.13
2022-08-25T20:46:26.357Z,21.10
2022-08-25T20:48:59.440Z,21.08
2022-08-25T20:51:33.819Z,21.05
2022-08-25T20:54:06.917Z,20.95
2022-08-25T20:56:39.458Z,20.91
2022-08-25T20:59:11.893Z,20.79
2022-08-25T21:01:44.356Z,20.79
2022-08-25T21:04:20.645Z,20.66
2022-08-25T21:06:53.310Z,20.58
2022-08-25T21:09:26.476Z,20.50
2022-08-25T21:12:00.343Z,20.47
2022-08-25T21:14:34.685Z,20.41
2022-08-25T21:17:12.647Z,20.35
2022-08-25T21:19:45.280Z,20.27
2022-08-25T21:22:17.728Z,20.24
2022-08-25T21:24:51.290Z,20.20
2022-08-25T21:27:24.076Z,20.13
2022-08-25T21:29:56.679Z,20.10
2022-08-25T21:32:29.170Z,20.09
2022-08-25T21:35:01.955Z,20.05
2022-08-25T21:37:34.491Z,20.02
2022-08-25T21:40:08.751Z,19.94
2022-08-25T21:42:41.293Z,19.90
2022-08-25T21:45:14.193Z,19.90
2022-08-25T21:47:46.641Z,19.87
2022-08-25T21:50:19.844Z,19.77
2022-08-25T21:52:54.606Z,19.73
2022-08-25T21:55:27.347Z,19.71
2022-08-25T21:57:59.876Z,19.65
2022-08-25T22:00:33.819Z,19.59
2022-08-25T22:03:06.293Z,19.60
2022-08-25T22:05:39.310Z,19.57
2022-08-25T22:08:13.056Z,19.51
2022-08-25T22:10:45.488Z,19.51
2022-08-25T22:13:18.204Z,19.51
2022-08-25T22:15:52.168Z,19.51
2022-08-25T22:18:24.874Z,19.52
2022-08-25T22:21:00.171Z,19.51
2022-08-25T22:23:44.007Z,19.50
2022-08-25T22:26:20.753Z,19.48
2022-08-25T22:28:56.243Z,19.46
2022-08-25T22:31:29.789Z,19.49
2022-08-25T22:34:03.037Z,19.46
2022-08-25T22:36:38.452Z,19.40
2022-08-25T22:39:12.265Z,19.42
2022-08-25T22:41:45.731Z,19.43
2022-08-25T22:44:18.141Z,19.41
2022-08-25T22:46:51.401Z,19.32
2022-08-25T22:49:23.925Z,19.30
2022-08-25T22:51:56.337Z,19.29
2022-08-25T22:54:29.903Z,19.23
2022-08-25T22:57:05.999Z,19.25
2022-08-25T22:59:39.383Z,19.24
2022-08-25T23:02:12.316Z,19.22
2022-08-25T23:04:44.796Z,19.21
2022-08-25T23:07:17.752Z,19.18
2022-08-25T23:09:50.382Z,19.17
2022-08-25T23:12:23.596Z,19.12
2022-08-25T23:14:56.380Z,19.13
2022-08-25T23:17:29.380Z,19.10
2022-08-25T23:20:24.458Z,19.13
2022-08-25T23:22:57.060Z,19.07
2022-08-25T23:25:29.700Z,19.00
2022-08-25T23:28:02.803Z,18.99
2022-08-25T23:30:35.843Z,19.00
2022-08-25T23:33:15.551Z,18.99
2022-08-25T23:36:04.733Z,18.97
2022-08-25T23:38:44.078Z,18.95
2022-08-25T23:41:19.707Z,18.95
2022-08-25T23:43:52.788Z,18.96
2022-08-25T23:46:29.444Z,18.93
2022-08-25T23:49:04.136Z,18.92
2022-08-25T23:51:38.050Z,18.92
2022-08-25T23:54:12.383Z,18.90
2022-08-25T23:56:52.255Z,18.87
2022-08-25T23:59:25.657Z,18.89
